WetterOnline ( https://www.wetteronline.de )

Wetter aktuell Bad Hersfeld

Aktuelles Wetter: Bad Hersfeld (273m)

6-stündlich | Neueste Meldungen
Ortszeit Temperatur Wetter
Mi, 28.09. 8:00 7.5° C leichter Regen
Mi, 28.09. 2:00 7.7° C bewölkt
Di, 27.09. 20:00 7.9° C Regen
Di, 27.09. 14:00 11.2° C bedeckt
Di, 27.09. 8:00 8.6° C leichter Regen
Di, 27.09. 2:00 9.3° C Sprühregen
Mo, 26.09. 20:00 11.3° C bewölkt
Mo, 26.09. 14:00 14.9° C wolkig
Ortszeit Temperatur Wetter
Mi, 28.09. 13:30 10.6° C wolkig
Mi, 28.09. 13:20 10.6° C wolkig
Mi, 28.09. 13:10 9.9° C bewölkt
Mi, 28.09. 13:00 9.2° C bewölkt
Mi, 28.09. 12:50 9.2° C bewölkt
Mi, 28.09. 12:40 8.8° C bedeckt
Mi, 28.09. 12:30 7.7° C Regen
Mi, 28.09. 12:00 9.2° C leichter Regen
Mi, 28.09. 11:30 8.9° C wolkig
Mi, 28.09. 11:00 9.2° C bedeckt
Mi, 28.09. 10:30 8.5° C bedeckt
Ortszeit Relative Feuchte Sichtweite
Mi, 28.09. 8:00 95% -
Mi, 28.09. 2:00 88% 40 km
Di, 27.09. 20:00 91% 50 km
Di, 27.09. 14:00 72% 65 km
Di, 27.09. 8:00 93% 25 km
Di, 27.09. 2:00 92% 50 km
Mo, 26.09. 20:00 72% 60 km
Mo, 26.09. 14:00 55% 60 km
Ortszeit Relative Feuchte Sichtweite
Mi, 28.09. 13:30 74% 50 km
Mi, 28.09. 13:20 74% -
Mi, 28.09. 13:10 79% -
Mi, 28.09. 13:00 84% 60 km
Mi, 28.09. 12:50 84% -
Mi, 28.09. 12:40 80% -
Mi, 28.09. 12:30 87% 6 km
Mi, 28.09. 12:00 79% 45 km
Mi, 28.09. 11:30 82% 45 km
Mi, 28.09. 11:00 81% 40 km
Mi, 28.09. 10:30 90% 40 km
Ortszeit Niederschlagsmenge Niederschlagsart
Mi, 28.09. 8:00 6 l/m2 in 12 Std. Regen
Mi, 28.09. 2:00 0.1 l/m2 in 6 Std. Regen
Di, 27.09. 20:00 2 l/m2 in 12 Std. Regen
Di, 27.09. 14:00 0.6 l/m2 in 6 Std. Regen
Di, 27.09. 8:00 3 l/m2 in 12 Std. Regen
Di, 27.09. 2:00 2 l/m2 in 6 Std. Regen
Mo, 26.09. 20:00 0.1 l/m2 in 12 Std. Regen
Mo, 26.09. 14:00 0.0 l/m2 in 6 Std. -
Ortszeit Niederschlagsmenge Niederschlagsart
Mi, 28.09. 13:30 0.0 l/m2 in 1 Std. -
Mi, 28.09. 13:20 keine Meldung -
Mi, 28.09. 13:10 keine Meldung -
Mi, 28.09. 13:00 1.4 l/m2 in 1 Std. Regen
Mi, 28.09. 12:50 keine Meldung -
Mi, 28.09. 12:40 keine Meldung -
Mi, 28.09. 12:30 1.3 l/m2 in 1 Std. -
Mi, 28.09. 12:00 <0.05 l/m2 in 1 Std. Regen
Mi, 28.09. 11:30 <0.05 l/m2 in 1 Std. Schneeregen
Mi, 28.09. 11:00 0.0 l/m2 in 1 Std. Regen
Mi, 28.09. 10:30 0.0 l/m2 in 1 Std. -
Ortszeit Stärke Spitze Richtung
km/h Bft. km/h Grad Sektor
Mi, 28.09. 8:00 9 2 28 230° SW
Mi, 28.09. 2:00 14 3 29 190° S
Di, 27.09. 20:00 11 2 40 200° S
Di, 27.09. 14:00 17 3 39 230° SW
Di, 27.09. 8:00 11 2 32 220° SW
Di, 27.09. 2:00 22 4 40 190° S
Mo, 26.09. 20:00 18 3 43 190° S
Mo, 26.09. 14:00 18 3 47 200° S
Ortszeit Stärke Spitze Richtung
km/h Bft. km/h Grad Sektor
Mi, 28.09. 13:30 9 2 24 250° W
Mi, 28.09. 13:20 9 2 - 250° W
Mi, 28.09. 13:10 11 2 - 230° SW
Mi, 28.09. 13:00 7 2 29 230° SW
Mi, 28.09. 12:50 7 2 - 230° SW
Mi, 28.09. 12:40 7 2 - 260° W
Mi, 28.09. 12:30 9 2 28 250° W
Mi, 28.09. 12:00 11 2 29 250° W
Mi, 28.09. 11:30 9 2 22 250° W
Mi, 28.09. 11:00 11 2 22 240° SW
Mi, 28.09. 10:30 9 2 15 240° SW
Ortszeit Untergrenze Bedeckung Gattung
total tief tief mittel hoch
Mi, 28.09. 8:00 210 m 7/8 7/8 - - -
Mi, 28.09. 2:00 900 m 8/8 7/8 - - -
Di, 27.09. 20:00 1110 m 7/8 7/8 - - -
Di, 27.09. 14:00 690 m 8/8 8/8 - - -
Di, 27.09. 8:00 30 m 8/8 8/8 - - -
Di, 27.09. 2:00 360 m 8/8 8/8 - - -
Mo, 26.09. 20:00 1440 m 8/8 7/8 - - -
Mo, 26.09. 14:00 1230 m 7/8 2/8 - - -
Ortszeit Bedeckungsgrad in Achtel und Wolkenuntergrenze
Mi, 28.09. 13:30 2(750m) 3(1170m) 6(1350m)
Mi, 28.09. 13:20 2(750m) 3(1170m) 6(1350m)
Mi, 28.09. 13:10 7
Mi, 28.09. 13:00 2(630m) 4(1020m) 7(1290m)
Mi, 28.09. 12:50 2(630m) 4(1020m) 7(1290m)
Mi, 28.09. 12:40 8
Mi, 28.09. 12:30 1(570m) 7(1020m) 7(1410m)
Mi, 28.09. 12:00 1(630m) 6(1050m) 6(1410m)
Mi, 28.09. 11:30 1(540m) 3(930m) 5(1410m)
Mi, 28.09. 11:00 4(480m) 7(960m) 8(1500m)
Mi, 28.09. 10:30 6(510m) 8(1110m)
Ortszeit Luftdruck NN (hPa) Tendenz (hPa in 3 Std.)
Mi, 28.09. 8:00 995 - 0,7
Mi, 28.09. 2:00 998 - 1,5
Di, 27.09. 20:00 999 + 0,5
Di, 27.09. 14:00 999 + 0,6
Di, 27.09. 8:00 996 + 1,0
Di, 27.09. 2:00 996 - 2,7
Mo, 26.09. 20:00 1000 - 2,4
Mo, 26.09. 14:00 1004 - 1,8
Ortszeit Luftdruck NN (hPa) Tendenz (hPa in 3 Std.)
Mi, 28.09. 13:30 997 + 1,0
Mi, 28.09. 13:20 997 keine Meldung
Mi, 28.09. 13:10 997 keine Meldung
Mi, 28.09. 13:00 997 + 1,2
Mi, 28.09. 12:50 997 keine Meldung
Mi, 28.09. 12:40 997 keine Meldung
Mi, 28.09. 12:30 998 + 1,6
Mi, 28.09. 12:00 997 + 1,8
Mi, 28.09. 11:30 997 + 1,8
Mi, 28.09. 11:00 997 + 1,8
Mi, 28.09. 10:30 997 + 1,7
Ortszeit Schneehöhe (cm)
Mi, 28.09. 8:00 -
Mi, 28.09. 2:00 -
Di, 27.09. 20:00 -
Di, 27.09. 14:00 -
Di, 27.09. 8:00 -
Di, 27.09. 2:00 -
Mo, 26.09. 20:00 -
Mo, 26.09. 14:00 -
Ortszeit Schneehöhe (cm)
Mi, 28.09. 13:30 0
Mi, 28.09. 13:20 0
Mi, 28.09. 13:10 0
Mi, 28.09. 13:00 0
Mi, 28.09. 12:50 0
Mi, 28.09. 12:40 0
Mi, 28.09. 12:30 0
Mi, 28.09. 12:00 0
Mi, 28.09. 11:30 0
Mi, 28.09. 11:00 0
Mi, 28.09. 10:30 0
Link zu dieser Seite / Seite empfehlen

Das Wetter in ...